Time;durP1;ratioP1;P1;durP2;ratioP2;P2;SDS_P1;SDS_P2;PMS_P1;PMS_P2;Temp;Humidity;BMP_temperature;BMP_pressure;BME280_temperature;BME280_humidity;BME280_pressure;Samples;Min_cycle;Max_cycle;Signal;HPM_P1;HPM_P2
2020/12/27 00:02:24;;;;;;;15.10;7.10;;;;;;;0.54;71.53;100015.25;124560;1142;22671;-63
2020/12/27 00:04:52;;;;;;;10.60;5.70;;;;;;;0.51;71.34;100015.60;124678;1143;23459;-63
2020/12/27 00:07:19;;;;;;;16.15;7.75;;;;;;;0.51;72.33;100018.28;120589;1143;23381;-61
2020/12/27 00:09:48;;;;;;;17.50;8.03;;;;;;;0.50;71.62;100020.13;124738;1143;22698;-62
2020/12/27 00:12:17;;;;;;;15.05;6.95;;;;;;;0.49;72.14;100014.95;124672;1143;22802;-62
2020/12/27 00:14:45;;;;;;;14.40;6.47;;;;;;;0.49;72.42;100014.95;124820;1142;22685;-62
2020/12/27 00:17:13;;;;;;;16.65;7.45;;;;;;;0.49;71.49;100017.63;124617;1142;22791;-63
2020/12/27 00:19:40;;;;;;;15.20;7.03;;;;;;;0.49;71.53;100020.30;124735;1142;22692;-62
2020/12/27 00:22:09;;;;;;;13.10;6.65;;;;;;;0.47;72.50;100016.97;124623;1142;22686;-62
2020/12/27 00:24:36;;;;;;;15.15;6.60;;;;;;;0.49;71.33;100026.50;124844;1143;22744;-62
2020/12/27 00:27:03;;;;;;;12.00;6.47;;;;;;;0.49;72.83;100023.82;124737;1142;23367;-62
2020/12/27 00:29:31;;;;;;;24.87;9.97;;;;;;;0.47;71.68;100030.37;124804;1143;23337;-62
2020/12/27 00:31:58;;;;;;;14.55;7.10;;;;;;;0.49;72.13;100026.50;124529;1143;22697;-62
2020/12/27 00:34:26;;;;;;;20.80;8.80;;;;;;;0.49;72.54;100020.30;124756;1143;22738;-62
2020/12/27 00:36:57;;;;;;;21.65;9.80;;;;;;;0.51;71.40;100023.64;124581;1142;22695;-62
2020/12/27 00:39:24;;;;;;;13.70;7.70;;;;;;;0.50;71.70;100021.98;124921;1143;22701;-62
2020/12/27 00:41:57;;;;;;;13.50;7.00;;;;;;;0.52;71.63;100020.78;124723;1142;22694;-61
2020/12/27 00:44:24;;;;;;;20.80;8.60;;;;;;;0.54;71.91;100025.97;124766;1142;23376;-62
2020/12/27 00:46:52;;;;;;;16.50;7.55;;;;;;;0.53;71.85;100026.98;124731;1142;22716;-62
2020/12/27 00:49:20;;;;;;;13.40;7.20;;;;;;;0.52;72.44;100026.15;124590;1143;23310;-62
2020/12/27 00:51:49;;;;;;;18.25;8.00;;;;;;;0.54;71.35;100029.48;124851;1143;22750;-62
2020/12/27 00:54:17;;;;;;;14.45;7.05;;;;;;;0.53;72.31;100029.66;124628;1142;22766;-62
2020/12/27 00:56:49;;;;;;;18.60;9.60;;;;;;;0.54;72.30;100025.97;124646;1142;22676;-62
2020/12/27 00:59:18;;;;;;;14.63;7.17;;;;;;;0.56;72.30;100034.67;124676;1143;22743;-62
2020/12/27 01:01:46;;;;;;;16.00;7.30;;;;;;;0.58;71.45;100025.41;124780;1143;23691;-62
2020/12/27 01:04:40;;;;;;;13.90;6.95;;;;;;;0.59;71.70;100032.44;124403;1142;22716;-62
2020/12/27 01:07:08;;;;;;;14.25;7.40;;;;;;;0.61;71.82;100038.45;124804;1142;22695;-62
2020/12/27 01:09:35;;;;;;;10.55;6.20;;;;;;;0.63;71.15;100035.59;124655;1142;23357;-62
2020/12/27 01:12:04;;;;;;;10.95;5.65;;;;;;;0.64;72.02;100037.27;124918;1142;22669;-62
2020/12/27 01:14:31;;;;;;;9.87;5.37;;;;;;;0.63;71.46;100032.92;124613;1142;22771;-62
2020/12/27 01:17:02;;;;;;;10.00;4.80;;;;;;;0.62;72.09;100036.61;124668;1143;22699;-62
2020/12/27 01:19:30;;;;;;;11.10;5.90;;;;;;;0.60;72.31;100027.91;124533;1143;22751;-62
2020/12/27 01:21:57;;;;;;;10.53;5.50;;;;;;;0.62;71.28;100031.25;124773;1143;22749;-62
2020/12/27 01:24:39;;;;;;;12.40;5.90;;;;;;;0.64;72.12;100034.59;124530;1143;23507;-63
2020/12/27 01:27:07;;;;;;;9.05;5.15;;;;;;;0.64;71.64;100040.78;124777;1143;22743;-62
2020/12/27 01:29:34;;;;;;;9.30;5.50;;;;;;;0.66;71.29;100052.16;124583;1142;22695;-62
2020/12/27 01:32:07;;;;;;;11.80;6.15;;;;;;;0.68;71.37;100054.67;124783;1143;23242;-62
2020/12/27 01:34:41;;;;;;;9.50;5.33;;;;;;;0.69;71.40;100056.34;124678;1142;23486;-62
2020/12/27 01:37:10;;;;;;;11.95;5.90;;;;;;;0.70;71.69;100066.89;124826;1143;22757;-62
2020/12/27 01:39:44;;;;;;;10.47;6.03;;;;;;;0.61;71.57;100049.18;124640;1143;22664;-62
2020/12/27 01:42:11;;;;;;;11.17;6.17;;;;;;;0.73;72.37;100059.47;124773;1142;23274;-62
2020/12/27 01:44:38;;;;;;;9.75;5.75;;;;;;;0.71;72.25;100059.67;124711;1142;22698;-62
2020/12/27 01:47:16;;;;;;;12.50;6.30;;;;;;;0.73;72.08;100060.30;124808;1142;23973;-62
2020/12/27 01:49:44;;;;;;;12.60;5.95;;;;;;;0.74;71.47;100069.18;124470;1143;23390;-62
2020/12/27 01:52:11;;;;;;;9.87;6.03;;;;;;;0.73;72.11;100076.39;124786;1143;23448;-62
2020/12/27 01:55:17;;;;;;;11.65;5.90;;;;;;;0.72;72.03;100069.39;124541;1142;22691;-62
2020/12/27 01:57:52;;;;;;;12.55;7.20;;;;;;;0.72;72.38;100066.71;124696;1143;22678;-62
2020/12/27 02:00:20;;;;;;;12.55;6.95;;;;;;;0.74;71.64;100064.66;124593;1143;22771;-62
2020/12/27 02:03:11;;;;;;;16.30;7.60;;;;;;;0.74;71.20;100055.77;124721;1142;22811;-62
2020/12/27 02:05:50;;;;;;;23.42;8.35;;;;;;;0.76;72.30;100078.72;124699;1143;23329;-63
2020/12/27 02:08:19;;;;;;;16.35;7.80;;;;;;;0.77;71.86;100074.19;124621;1143;22665;-62
2020/12/27 02:11:03;;;;;;;11.17;6.47;;;;;;;0.77;72.41;100083.07;124592;1142;22669;-62
2020/12/27 02:13:50;;;;;;;16.67;7.10;;;;;;;0.81;72.33;100072.82;124760;1142;22734;-62
2020/12/27 02:16:21;;;;;;;12.95;6.75;;;;;;;0.81;71.79;100076.34;124583;1143;22757;-62
2020/12/27 02:19:08;;;;;;;14.15;6.85;;;;;;;0.80;71.40;100071.98;124741;1143;22698;-62
2020/12/27 02:21:36;;;;;;;11.43;5.67;;;;;;;0.78;71.89;100082.06;124691;1143;22697;-62
2020/12/27 02:24:04;;;;;;;9.77;5.43;;;;;;;0.78;71.32;100091.95;124735;1142;22700;-62
2020/12/27 02:26:32;;;;;;;9.25;5.50;;;;;;;0.77;71.92;100090.28;124552;1142;22665;-62
2020/12/27 02:29:00;;;;;;;12.00;6.50;;;;;;;0.77;71.34;100099.16;124742;1142;22689;-62
2020/12/27 02:31:28;;;;;;;10.45;5.80;;;;;;;0.79;71.88;100101.67;124557;1142;23622;-62
2020/12/27 02:34:00;;;;;;;12.10;5.70;;;;;;;0.81;71.48;100097.80;124782;1143;23485;-62
2020/12/27 02:36:30;;;;;;;7.80;5.10;;;;;;;0.82;71.16;100101.31;124667;1142;22695;-62
2020/12/27 02:38:59;;;;;;;7.65;4.95;;;;;;;0.83;71.08;100103.81;124781;1142;22682;-62
2020/12/27 02:41:33;;;;;;;11.80;5.50;;;;;;;0.82;70.86;100104.83;124731;1143;22680;-62
2020/12/27 02:44:06;;;;;;;10.10;4.97;;;;;;;0.83;70.98;100111.86;124747;1143;22655;-62
2020/12/27 02:46:43;;;;;;;9.40;5.58;;;;;;;0.83;71.43;100119.91;121709;1142;22920;-61
2020/12/27 02:49:31;;;;;;;14.10;8.27;;;;;;;0.86;72.03;100124.09;120037;1143;23071;-61
2020/12/27 02:52:03;;;;;;;11.47;6.53;;;;;;;0.86;70.99;100127.60;120019;1142;22933;-61
2020/12/27 02:54:32;;;;;;;10.25;5.35;;;;;;;0.87;71.54;100131.92;124735;1143;22655;-62
2020/12/27 02:57:02;;;;;;;9.60;4.70;;;;;;;0.88;71.02;100136.28;124646;1143;22710;-62
2020/12/27 02:59:29;;;;;;;7.65;4.40;;;;;;;0.91;70.86;100127.04;124699;1142;22741;-62
2020/12/27 03:02:04;;;;;;;8.70;4.80;;;;;;;0.90;71.49;100123.52;124717;1143;23300;-62
2020/12/27 03:04:52;;;;;;;9.58;5.45;;;;;;;0.94;71.68;100130.20;124754;1143;23122;-62
2020/12/27 03:07:20;;;;;;;11.25;5.00;;;;;;;0.96;70.99;100148.80;124779;1143;22670;-62
2020/12/27 03:10:07;;;;;;;11.80;5.35;;;;;;;0.96;70.89;100141.59;124782;1143;22741;-62
2020/12/27 03:12:46;;;;;;;7.67;4.57;;;;;;;0.97;71.11;100145.95;124710;1142;22706;-62
2020/12/27 03:15:14;;;;;;;16.07;5.90;;;;;;;0.99;71.50;100148.45;124845;1143;22775;-62
2020/12/27 03:18:00;;;;;;;8.87;4.83;;;;;;;1.01;71.57;100147.23;124649;1143;22703;-62
2020/12/27 03:20:54;;;;;;;9.75;4.95;;;;;;;1.02;70.72;100154.27;124802;1143;22697;-62
2020/12/27 03:23:24;;;;;;;10.10;5.20;;;;;;;1.04;71.09;100154.09;124605;1143;22688;-62
2020/12/27 03:25:57;;;;;;;12.20;5.83;;;;;;;1.05;71.14;100150.39;124792;1142;22699;-62
2020/12/27 03:28:25;;;;;;;9.10;5.40;;;;;;;1.05;71.00;100150.39;124588;1143;22664;-63
2020/12/27 03:30:57;;;;;;;12.00;5.90;;;;;;;1.07;71.62;100156.41;124728;1143;22823;-62
2020/12/27 03:33:27;;;;;;;10.65;5.30;;;;;;;1.05;71.32;100151.23;124778;1142;22739;-62
2020/12/27 03:35:58;;;;;;;7.70;4.45;;;;;;;1.04;70.97;100157.61;124746;1143;22685;-62
2020/12/27 03:38:33;;;;;;;7.50;4.00;;;;;;;1.05;70.77;100169.17;124626;1143;22765;-62
2020/12/27 03:41:24;;;;;;;7.00;4.20;;;;;;;1.04;70.94;100162.97;124693;1142;22692;-62
2020/12/27 03:44:14;;;;;;;9.37;4.87;;;;;;;1.05;71.69;100171.86;124602;1142;23558;-62
2020/12/27 03:47:01;;;;;;;6.83;4.12;;;;;;;1.04;70.62;100176.39;124778;1142;22760;-62
2020/12/27 03:49:55;;;;;;;8.05;4.40;;;;;;;1.02;70.67;100173.05;124542;1143;22781;-62
2020/12/27 03:52:32;;;;;;;6.87;4.70;;;;;;;1.04;71.78;100183.60;124686;1143;22713;-62
2020/12/27 03:55:21;;;;;;;7.50;3.97;;;;;;;1.03;70.98;100179.25;124515;1142;22692;-62
2020/12/27 03:57:54;;;;;;;7.65;5.30;;;;;;;1.02;71.35;100181.09;124796;1143;22690;-62
2020/12/27 04:00:35;;;;;;;6.97;4.20;;;;;;;1.02;70.59;100191.83;124640;1143;22690;-62
2020/12/27 04:03:13;;;;;;;7.30;4.75;;;;;;;1.04;71.07;100194.33;124742;1143;22662;-62
2020/12/27 04:05:42;;;;;;;8.07;4.30;;;;;;;1.04;70.56;100189.80;124678;1143;22768;-62
2020/12/27 04:08:11;;;;;;;8.25;4.40;;;;;;;1.06;71.58;100189.63;124675;1142;22721;-62
2020/12/27 04:10:41;;;;;;;8.15;3.85;;;;;;;1.05;71.38;100186.11;124774;1142;22790;-62
2020/12/27 04:13:09;;;;;;;8.00;4.30;;;;;;;1.05;70.96;100194.16;124726;1142;22953;-62
2020/12/27 04:15:37;;;;;;;9.87;4.97;;;;;;;1.05;71.38;100201.38;124656;1143;22782;-62
2020/12/27 04:18:14;;;;;;;10.75;5.28;;;;;;;1.05;70.67;100196.00;124788;1143;22698;-62
2020/12/27 04:21:01;;;;;;;10.45;5.28;;;;;;;1.04;70.67;100199.70;124536;1142;23399;-62
2020/12/27 04:23:29;;;;;;;9.07;5.13;;;;;;;1.03;71.32;100193.50;124748;1142;22682;-62
2020/12/27 04:25:58;;;;;;;10.70;6.55;;;;;;;1.02;71.50;100185.63;124584;1143;23438;-62
2020/12/27 04:28:26;;;;;;;8.70;5.33;;;;;;;1.01;71.02;100198.20;124740;1143;22667;-62
2020/12/27 04:30:53;;;;;;;8.65;4.70;;;;;;;1.01;70.25;100206.25;124535;1143;23505;-62
2020/12/27 04:33:31;;;;;;;7.90;4.77;;;;;;;1.03;71.01;100209.59;124754;1143;22929;-62
2020/12/27 04:36:09;;;;;;;7.30;5.00;;;;;;;1.04;71.13;100207.75;124671;1142;22757;-62
2020/12/27 04:38:37;;;;;;;7.85;4.90;;;;;;;1.06;71.32;100213.78;124744;1142;22675;-62
2020/12/27 04:41:04;;;;;;;9.90;5.47;;;;;;;1.08;71.62;100214.44;124782;1143;22793;-62
2020/12/27 04:43:32;;;;;;;9.77;5.00;;;;;;;1.08;70.96;100217.12;124798;1141;22691;-62
2020/12/27 04:45:59;;;;;;;8.27;5.00;;;;;;;1.08;71.19;100217.12;124769;1142;22667;-62
2020/12/27 04:48:30;;;;;;;9.13;5.07;;;;;;;1.07;70.82;100215.45;124739;1142;22734;-62
2020/12/27 04:51:30;;;;;;;7.40;4.95;;;;;;;1.08;70.75;100213.59;124626;1141;22780;-62
2020/12/27 04:54:15;;;;;;;9.20;5.65;;;;;;;1.06;71.28;100216.45;124769;1142;22752;-62
2020/12/27 04:56:52;;;;;;;8.38;5.30;;;;;;;1.05;70.85;100223.67;121318;1142;22885;-61
2020/12/27 04:59:20;;;;;;;8.47;5.03;;;;;;;1.05;71.46;100228.20;124822;1142;22750;-63
2020/12/27 05:01:51;;;;;;;8.10;4.47;;;;;;;1.05;71.83;100228.20;124753;1143;22759;-62
2020/12/27 05:06:14;;;;;;;7.35;4.10;;;;;;;1.05;71.62;100236.25;120119;1148;22961;-64
2020/12/27 05:08:44;;;;;;;6.73;4.77;;;;;;;1.05;71.20;100238.94;124168;1146;22777;-63
2020/12/27 05:11:16;;;;;;;7.50;4.05;;;;;;;1.06;71.21;100237.92;124128;1147;22715;-62
2020/12/27 05:13:46;;;;;;;9.43;4.90;;;;;;;1.05;71.69;100239.77;124116;1147;22705;-63
2020/12/27 05:16:24;;;;;;;7.20;4.23;;;;;;;1.05;70.67;100236.25;124286;1147;22665;-63
2020/12/27 05:18:52;;;;;;;7.40;4.67;;;;;;;1.05;70.87;100245.14;124154;1147;22693;-63
2020/12/27 05:21:25;;;;;;;9.50;6.25;;;;;;;1.03;71.42;100249.01;124275;1147;22781;-63
2020/12/27 05:23:53;;;;;;;13.20;6.35;;;;;;;1.02;71.76;100241.97;124151;1147;22684;-63
2020/12/27 05:26:30;;;;;;;10.20;6.05;;;;;;;1.03;72.12;100251.69;124267;1147;22714;-63
2020/12/27 05:29:10;;;;;;;10.65;6.35;;;;;;;1.03;71.88;100249.84;124056;1146;22699;-63
2020/12/27 05:31:48;;;;;;;11.05;6.30;;;;;;;1.02;71.55;100261.59;124114;1149;22753;-63
2020/12/27 05:34:39;;;;;;;7.90;5.15;;;;;;;1.03;72.26;100262.42;123957;1149;22690;-63
2020/12/27 05:37:46;;;;;;;11.50;6.30;;;;;;;1.03;71.92;100262.42;124393;1148;22791;-63
2020/12/27 05:40:40;;;;;;;12.65;7.30;;;;;;;1.04;72.36;100275.67;123794;1149;22702;-63
2020/12/27 05:43:17;;;;;;;11.05;5.78;;;;;;;1.06;71.87;100279.02;124235;1146;22684;-63
2020/12/27 05:45:56;;;;;;;8.90;5.20;;;;;;;1.05;71.77;100288.08;124074;1148;23529;-63
2020/12/27 05:48:24;;;;;;;13.07;5.90;;;;;;;1.06;71.29;100283.55;124187;1148;22691;-63
2020/12/27 05:50:52;;;;;;;10.87;5.73;;;;;;;1.06;71.18;100281.70;124158;1148;22755;-63
2020/12/27 05:53:23;;;;;;;10.57;5.80;;;;;;;1.08;71.60;100299.47;124120;1148;22726;-63
2020/12/27 05:55:55;;;;;;;14.35;6.40;;;;;;;1.08;71.31;100299.47;122643;1148;22938;-63
2020/12/27 05:58:23;;;;;;;16.45;7.00;;;;;;;1.10;71.19;100300.13;119792;1148;22934;-63
2020/12/27 06:00:59;;;;;;;13.95;6.75;;;;;;;1.06;70.96;100303.16;123998;1148;22641;-63
2020/12/27 06:03:28;;;;;;;13.80;7.30;;;;;;;1.08;72.29;100312.88;124251;1148;22776;-63
2020/12/27 06:05:56;;;;;;;10.50;6.60;;;;;;;1.09;72.45;100314.56;124086;1148;22833;-63
2020/12/27 06:08:30;;;;;;;16.15;8.25;;;;;;;1.07;72.48;100312.05;124221;1148;23699;-63
2020/12/27 06:11:05;;;;;;;20.40;8.50;;;;;;;1.05;72.18;100322.13;124035;1148;23531;-63
2020/12/27 06:13:53;;;;;;;17.70;9.30;;;;;;;1.03;72.91;100326.83;124158;1149;23625;-63
2020/12/27 06:16:49;;;;;;;16.83;9.40;;;;;;;1.02;71.99;100333.20;123959;1148;22685;-63
2020/12/27 06:20:07;;;;;;;20.05;10.05;;;;;;;1.03;71.92;100337.55;124199;1149;22736;-63
2020/12/27 06:22:40;;;;;;;20.20;9.95;;;;;;;1.04;72.49;100350.80;124176;1148;22680;-63
2020/12/27 06:25:38;;;;;;;17.13;7.97;;;;;;;1.05;72.70;100347.11;123121;1149;22924;-63
2020/12/27 06:28:07;;;;;;;19.77;9.40;;;;;;;1.08;72.23;100355.82;124223;1149;23467;-63
2020/12/27 06:31:14;;;;;;;17.83;8.90;;;;;;;1.09;72.30;100360.17;124134;1148;22681;-63
2020/12/27 06:34:00;;;;;;;14.73;7.50;;;;;;;1.09;73.44;100361.02;124133;1146;22674;-64
2020/12/27 06:36:40;;;;;;;15.95;7.20;;;;;;;1.10;72.93;100364.53;124090;1148;22676;-65
2020/12/27 06:39:27;;;;;;;14.03;7.33;;;;;;;1.11;72.24;100376.95;124171;1148;23276;-64
2020/12/27 06:42:18;;;;;;;17.43;7.80;;;;;;;1.12;72.24;100383.98;123913;1148;22695;-63
2020/12/27 06:45:28;;;;;;;11.95;6.70;;;;;;;1.14;73.29;100384.65;124144;1148;22774;-62
2020/12/27 06:48:35;;;;;;;11.63;7.57;;;;;;;1.14;72.49;100392.70;124058;1148;22680;-63
2020/12/27 06:51:45;;;;;;;12.90;7.63;;;;;;;1.12;72.70;100387.51;123874;1148;22723;-65
2020/12/27 06:54:41;;;;;;;;;;;;;;;1.12;73.48;100381.30;124109;1148;22787;-63
2020/12/27 06:57:10;;;;;;;17.20;8.30;;;;;;;1.11;73.53;100382.31;124073;1148;21466;-63
2020/12/27 06:59:53;;;;;;;14.70;7.50;;;;;;;1.12;72.91;100394.72;124057;1148;22675;-62
2020/12/27 07:02:21;;;;;;;14.80;8.27;;;;;;;1.12;72.75;100395.56;123982;1148;22684;-63
2020/12/27 07:04:49;;;;;;;12.70;8.05;;;;;;;1.13;73.38;100391.03;124163;1148;22772;-62
2020/12/27 07:07:16;;;;;;;13.20;7.63;;;;;;;1.13;73.06;100375.77;123952;1148;23461;-70
2020/12/27 07:09:43;;;;;;;15.15;9.10;;;;;;;1.15;72.94;100392.53;124006;1149;22878;-70
2020/12/27 07:12:12;;;;;;;17.35;9.40;;;;;;;1.17;72.35;100390.48;123953;1148;22808;-70
2020/12/27 07:14:43;;;;;;;15.70;9.60;;;;;;;1.19;72.82;100392.98;124306;1148;22771;-70
2020/12/27 07:17:21;;;;;;;15.35;8.65;;;;;;;1.21;72.91;100383.75;124052;1148;22688;-71
2020/12/27 07:19:49;;;;;;;14.50;8.03;;;;;;;1.22;72.76;100379.22;124068;1148;22732;-70
2020/12/27 07:22:16;;;;;;;17.65;9.40;;;;;;;1.25;73.49;100389.61;124113;1148;22802;-70
2020/12/27 07:24:44;;;;;;;15.47;9.60;;;;;;;1.25;72.57;100389.61;124054;1148;22765;-71
2020/12/27 07:27:12;;;;;;;16.10;9.20;;;;;;;1.27;72.29;100395.65;124085;1149;22756;-70
2020/12/27 07:29:39;;;;;;;17.67;10.87;;;;;;;1.29;73.45;100407.05;124050;1148;22699;-70
2020/12/27 07:32:07;;;;;;;22.10;12.55;;;;;;;1.31;72.81;100415.73;124088;1149;22703;-71
2020/12/27 07:34:35;;;;;;;19.35;10.80;;;;;;;1.32;72.54;100403.98;124120;1148;22667;-71
2020/12/27 07:37:03;;;;;;;19.40;9.60;;;;;;;1.33;73.16;100411.03;124109;1148;22715;-63
2020/12/27 07:39:50;;;;;;;14.80;9.37;;;;;;;1.34;72.70;100410.86;123951;1148;22696;-63
2020/12/27 07:42:27;;;;;;;13.57;9.57;;;;;;;1.35;72.57;100414.38;124315;1146;22770;-63
2020/12/27 07:44:59;;;;;;;15.30;8.80;;;;;;;1.37;72.40;100417.73;124123;1146;23484;-63
2020/12/27 07:47:27;;;;;;;16.90;10.57;;;;;;;1.38;72.80;100411.34;124322;1147;22686;-63
2020/12/27 07:50:14;;;;;;;18.10;10.17;;;;;;;1.39;72.62;100413.86;124221;1147;22744;-64
2020/12/27 07:52:58;;;;;;;20.67;11.37;;;;;;;1.43;72.83;100411.66;124264;1148;24667;-63
2020/12/27 07:55:26;;;;;;;16.50;9.65;;;;;;;1.45;72.44;100416.83;123873;1149;22708;-63
2020/12/27 07:57:55;;;;;;;16.17;9.83;;;;;;;1.46;72.61;100413.13;124101;1148;24050;-63
2020/12/27 08:00:24;;;;;;;16.90;9.27;;;;;;;1.47;72.96;100415.64;123982;1148;22696;-63
2020/12/27 08:02:51;;;;;;;19.23;11.07;;;;;;;1.49;72.64;100418.16;124303;1146;22698;-63
2020/12/27 08:05:19;;;;;;;22.85;11.75;;;;;;;1.48;72.15;100417.31;124052;1146;22876;-70
2020/12/27 08:07:47;;;;;;;25.67;12.63;;;;;;;1.49;72.80;100434.27;124233;1148;22790;-70
2020/12/27 08:10:18;;;;;;;28.40;13.45;;;;;;;1.49;72.74;100440.47;124154;1148;22744;-71
2020/12/27 08:12:49;;;;;;;28.20;14.90;;;;;;;1.48;71.92;100436.11;124224;1146;23336;-70
2020/12/27 08:15:16;;;;;;;22.13;12.57;;;;;;;1.49;72.70;100448.53;124019;1148;22845;-70
2020/12/27 08:17:56;;;;;;;25.63;13.73;;;;;;;1.49;72.14;100448.53;124285;1148;22779;-70
2020/12/27 08:20:24;;;;;;;31.23;16.27;;;;;;;1.48;72.42;100444.17;124221;1147;22763;-70
2020/12/27 08:23:05;;;;;;;43.00;19.25;;;;;;;1.48;72.15;100454.91;124128;1148;22674;-70
2020/12/27 08:25:34;;;;;;;29.15;13.85;;;;;;;1.47;72.20;100461.30;124032;1148;22720;-71
2020/12/27 08:28:03;;;;;;;19.90;12.00;;;;;;;1.49;72.42;100455.75;124246;1146;22781;-70
2020/12/27 08:30:31;;;;;;;21.65;11.05;;;;;;;1.50;72.22;100455.58;124035;1148;22749;-70
2020/12/27 08:33:02;;;;;;;18.35;11.25;;;;;;;1.53;72.68;100468.66;124206;1148;22680;-70
2020/12/27 08:35:30;;;;;;;19.07;10.37;;;;;;;1.55;72.09;100465.80;123631;1147;22823;-70
2020/12/27 08:38:18;;;;;;;18.75;10.20;;;;;;;1.54;71.83;100454.22;119395;1150;27366;-69
2020/12/27 08:40:47;;;;;;;14.30;8.05;;;;;;;1.55;71.48;100457.74;123945;1148;24320;-70
2020/12/27 08:43:56;;;;;;;14.80;7.95;;;;;;;1.55;71.68;100453.20;124043;1148;22699;-70
2020/12/27 08:46:29;;;;;;;13.72;7.87;;;;;;;1.56;71.98;100451.36;123677;1151;23977;-70
2020/12/27 08:49:02;;;;;;;14.03;8.23;;;;;;;1.47;71.93;100433.60;123964;1151;23621;-70
2020/12/27 08:51:50;;;;;;;13.03;7.63;;;;;;;1.57;71.60;100448.50;123785;1151;22774;-70
2020/12/27 08:54:17;;;;;;;15.25;10.00;;;;;;;1.58;71.11;100443.97;123909;1151;22686;-70
2020/12/27 08:56:45;;;;;;;16.10;9.50;;;;;;;1.60;71.41;100442.75;123559;1151;23628;-70
2020/12/27 08:59:14;;;;;;;14.13;7.67;;;;;;;1.63;72.43;100434.34;123989;1151;22689;-70
2020/12/27 09:01:42;;;;;;;12.85;7.55;;;;;;;1.68;72.43;100428.45;123862;1151;22721;-70
2020/12/27 09:04:22;;;;;;;13.00;8.37;;;;;;;1.71;71.63;100428.09;123964;1149;23370;-70
2020/12/27 09:06:54;;;;;;;13.55;7.90;;;;;;;1.74;71.65;100427.72;123834;1152;22781;-70
2020/12/27 09:09:21;;;;;;;14.03;7.63;;;;;;;1.80;71.33;100423.48;123905;1152;22697;-70
2020/12/27 09:11:48;;;;;;;13.97;8.53;;;;;;;1.82;71.87;100416.92;123903;1152;22721;-70
2020/12/27 09:14:35;;;;;;;15.45;9.20;;;;;;;1.87;70.73;100419.92;123925;1152;23043;-70
2020/12/27 09:17:04;;;;;;;14.33;9.37;;;;;;;1.91;71.16;100425.75;123879;1152;22709;-70
2020/12/27 09:19:34;;;;;;;15.45;9.35;;;;;;;1.92;71.33;100430.11;123972;1152;22741;-70
2020/12/27 09:22:05;;;;;;;17.73;9.43;;;;;;;1.95;71.45;100430.59;124012;1149;22707;-70
2020/12/27 09:24:33;;;;;;;18.07;8.73;;;;;;;2.01;71.03;100426.36;124176;1149;23410;-70
2020/12/27 09:27:10;;;;;;;16.30;10.53;;;;;;;2.00;71.04;100417.46;124200;1148;22873;-70
2020/12/27 09:29:38;;;;;;;15.25;9.45;;;;;;;2.05;71.04;100416.90;124251;1149;22693;-70
2020/12/27 09:32:10;;;;;;;31.95;14.70;;;;;;;2.09;70.81;100419.05;124166;1149;22703;-70
2020/12/27 09:34:37;;;;;;;20.95;10.60;;;;;;;2.13;70.25;100423.06;123959;1149;22680;-70
2020/12/27 09:37:14;;;;;;;17.80;8.27;;;;;;;2.18;70.04;100424.34;124182;1149;23731;-70
2020/12/27 09:39:41;;;;;;;13.25;8.13;;;;;;;2.21;70.40;100427.52;124027;1149;22720;-70
2020/12/27 09:42:28;;;;;;;15.55;9.30;;;;;;;2.25;69.59;100426.14;124180;1149;23616;-70
2020/12/27 09:44:56;;;;;;;18.70;10.40;;;;;;;2.27;68.97;100424.11;124088;1148;22693;-70
2020/12/27 09:47:28;;;;;;;19.07;10.80;;;;;;;2.29;69.72;100426.62;124309;1148;22708;-70
2020/12/27 09:50:00;;;;;;;14.27;8.60;;;;;;;2.31;69.54;100429.97;124164;1148;22724;-70
2020/12/27 09:52:27;;;;;;;14.43;8.57;;;;;;;2.33;69.41;100422.52;124163;1149;22715;-70
2020/12/27 09:54:55;;;;;;;12.43;7.23;;;;;;;2.35;68.74;100420.49;124017;1149;22678;-70
2020/12/27 09:57:24;;;;;;;13.23;6.73;;;;;;;2.36;68.81;100430.23;124142;1148;22695;-70
2020/12/27 09:59:52;;;;;;;15.00;7.80;;;;;;;2.36;68.45;100433.76;124157;1148;22729;-70
2020/12/27 10:02:24;;;;;;;13.85;7.05;;;;;;;2.36;67.89;100422.17;124230;1148;23552;-70
2020/12/27 10:04:51;;;;;;;12.03;5.47;;;;;;;2.37;66.76;100431.91;124011;1148;22768;-70
2020/12/27 10:07:19;;;;;;;12.85;6.85;;;;;;;2.36;66.92;100433.76;124382;1146;22779;-70
2020/12/27 10:09:46;;;;;;;11.63;6.40;;;;;;;2.37;66.90;100429.22;124136;1148;23461;-70
2020/12/27 10:12:14;;;;;;;17.80;7.13;;;;;;;2.39;67.32;100432.56;124264;1148;22705;-70
2020/12/27 10:14:42;;;;;;;11.30;6.20;;;;;;;2.41;66.95;100436.75;124030;1148;22648;-70
2020/12/27 10:17:10;;;;;;;12.85;5.40;;;;;;;2.42;66.86;100435.73;124277;1146;22693;-69
2020/12/27 10:19:38;;;;;;;5.63;3.03;;;;;;;2.44;65.73;100432.86;124179;1148;25952;-70
2020/12/27 10:22:05;;;;;;;5.20;2.35;;;;;;;2.46;65.53;100430.80;124293;1148;22680;-69
2020/12/27 10:24:33;;;;;;;2.00;1.35;;;;;;;2.46;64.09;100428.95;124200;1148;22676;-70
2020/12/27 10:27:01;;;;;;;2.50;1.43;;;;;;;2.44;63.53;100427.48;124223;1148;22793;-69
2020/12/27 10:29:28;;;;;;;2.80;1.50;;;;;;;2.42;63.70;100427.66;124465;1146;22698;-70
2020/12/27 10:31:58;;;;;;;2.43;1.50;;;;;;;2.44;63.67;100431.01;124098;1149;22685;-70
2020/12/27 10:34:26;;;;;;;2.30;1.90;;;;;;;2.46;63.29;100425.42;124270;1146;22706;-70
2020/12/27 10:36:54;;;;;;;8.40;4.83;;;;;;;2.48;63.65;100423.38;123982;1148;22970;-70
2020/12/27 10:39:22;;;;;;;5.53;3.37;;;;;;;2.51;63.94;100409.58;124266;1146;22688;-70
2020/12/27 10:41:50;;;;;;;5.25;3.10;;;;;;;2.53;63.97;100426.38;124635;1144;22772;-70
2020/12/27 10:44:17;;;;;;;10.00;4.00;;;;;;;2.55;63.76;100426.19;124663;1142;22699;-69
2020/12/27 10:46:45;;;;;;;5.73;3.40;;;;;;;2.56;63.56;100420.63;124413;1144;23453;-69
2020/12/27 10:49:12;;;;;;;10.63;4.97;;;;;;;2.57;63.93;100411.55;124717;1144;22678;-70
2020/12/27 10:51:40;;;;;;;19.15;7.65;;;;;;;2.61;64.52;100402.06;124552;1144;22782;-70
2020/12/27 10:54:10;;;;;;;10.20;4.75;;;;;;;2.61;63.55;100402.06;124727;1142;22762;-70
2020/12/27 10:56:38;;;;;;;24.40;12.90;;;;;;;2.63;62.93;100394.64;124541;1144;22722;-70
2020/12/27 10:59:06;;;;;;;16.95;10.30;;;;;;;2.60;63.23;100397.70;124543;1142;22688;-70
2020/12/27 11:01:33;;;;;;;9.20;6.17;;;;;;;2.58;63.18;100397.08;124611;1143;24116;-70
2020/12/27 11:04:01;;;;;;;5.60;3.95;;;;;;;2.57;62.49;100386.50;124698;1143;22691;-70
2020/12/27 11:06:31;;;;;;;8.13;3.97;;;;;;;2.58;62.84;100390.86;124665;1142;22718;-70
2020/12/27 11:08:59;;;;;;;7.45;3.80;;;;;;;2.56;62.09;100379.45;124653;1143;23735;-70
2020/12/27 11:11:34;;;;;;;7.03;4.03;;;;;;;2.54;62.21;100384.17;124621;1144;22680;-69
2020/12/27 11:14:02;;;;;;;6.13;3.47;;;;;;;2.54;62.56;100385.00;124758;1144;22717;-70
2020/12/27 11:16:31;;;;;;;6.35;3.20;;;;;;;2.56;62.70;100393.73;124581;1144;22678;-70
2020/12/27 11:18:59;;;;;;;10.53;5.77;;;;;;;2.58;62.97;100396.23;124710;1144;22672;-70
2020/12/27 11:21:27;;;;;;;4.50;2.85;;;;;;;2.58;62.17;100393.55;124707;1144;23390;-70
2020/12/27 11:23:55;;;;;;;6.70;3.45;;;;;;;2.58;62.48;100398.93;124630;1144;22707;-70
2020/12/27 11:26:22;;;;;;;9.57;5.30;;;;;;;2.58;62.36;100397.08;124766;1143;22691;-70
2020/12/27 11:28:49;;;;;;;10.80;6.65;;;;;;;2.57;62.26;100397.25;124554;1142;23279;-69
2020/12/27 11:31:17;;;;;;;5.80;3.60;;;;;;;2.53;61.84;100395.95;124713;1142;22688;-69
2020/12/27 11:33:46;;;;;;;7.77;4.53;;;;;;;2.48;61.97;100404.56;124549;1144;22666;-70
2020/12/27 11:36:13;;;;;;;11.30;6.45;;;;;;;2.45;62.49;100397.69;124812;1144;22701;-70
2020/12/27 11:38:40;;;;;;;9.90;5.63;;;;;;;2.44;62.67;100404.11;124498;1142;22763;-70
2020/12/27 11:41:11;;;;;;;11.10;5.80;;;;;;;2.45;62.01;100404.95;124642;1144;22701;-69
2020/12/27 11:43:39;;;;;;;13.35;6.80;;;;;;;2.45;62.75;100394.19;124457;1144;22815;-69
2020/12/27 11:46:06;;;;;;;19.10;8.80;;;;;;;2.46;63.20;100402.05;124720;1144;22710;-70
2020/12/27 11:48:33;;;;;;;17.40;7.60;;;;;;;2.45;62.15;100403.06;124519;1144;22702;-70
2020/12/27 11:51:01;;;;;;;12.27;6.43;;;;;;;2.43;62.64;100402.44;124785;1142;22688;-70